Time;durP1;ratioP1;P1;durP2;ratioP2;P2;SDS_P1;SDS_P2;PMS_P1;PMS_P2;Temp;Humidity;BMP_temperature;BMP_pressure;BME280_temperature;BME280_humidity;BME280_pressure;Samples;Min_cycle;Max_cycle;Signal;HPM_P1;HPM_P2
2022/10/20 00:01:02;;;;;;;6.03;3.20;;;14.60;92.90;;;;;;5052184;28;20046;-80
2022/10/20 00:03:27;;;;;;;5.40;3.27;;;14.60;92.90;;;;;;5031532;28;20074;-80
2022/10/20 00:05:54;;;;;;;4.90;2.45;;;14.50;92.90;;;;;;5057293;28;20035;-80
2022/10/20 00:08:20;;;;;;;4.77;2.80;;;14.50;92.90;;;;;;5051311;28;20633;-80
2022/10/20 00:10:54;;;;;;;5.93;3.10;;;14.50;92.90;;;;;;5063572;28;20043;-80
2022/10/20 00:13:19;;;;;;;5.40;2.90;;;14.50;93.00;;;;;;5057207;28;20305;-80
2022/10/20 00:15:52;;;;;;;6.63;2.80;;;14.40;93.00;;;;;;5060000;28;20051;-80
2022/10/20 00:18:18;;;;;;;5.43;3.07;;;14.40;93.00;;;;;;5048848;28;20586;-80
2022/10/20 00:20:44;;;;;;;5.35;2.83;;;14.40;93.10;;;;;;5062763;28;20354;-80
2022/10/20 00:23:10;;;;;;;7.15;3.33;;;14.40;93.10;;;;;;5056740;28;20149;-80
2022/10/20 00:25:35;;;;;;;6.33;3.20;;;14.30;93.20;;;;;;5049058;28;20497;-80
2022/10/20 00:28:01;;;;;;;4.93;2.88;;;14.30;93.20;;;;;;5032104;28;20540;-80
2022/10/20 00:30:27;;;;;;;6.17;2.90;;;14.30;93.20;;;;;;5064277;28;20218;-80
2022/10/20 00:32:52;;;;;;;4.93;3.03;;;14.30;93.20;;;;;;5057042;28;20328;-80
2022/10/20 00:35:18;;;;;;;5.00;3.00;;;14.30;93.30;;;;;;5027764;28;20238;-80
2022/10/20 00:37:44;;;;;;;4.97;2.72;;;14.30;93.30;;;;;;5066809;28;20070;-80
2022/10/20 00:40:11;;;;;;;5.10;3.10;;;14.30;93.40;;;;;;5045694;28;20016;-81
2022/10/20 00:42:37;;;;;;;6.25;2.90;;;14.20;93.40;;;;;;5034644;28;20373;-80
2022/10/20 00:45:08;;;;;;;7.63;3.07;;;14.20;93.70;;;;;;5066135;28;20044;-80
2022/10/20 00:47:36;;;;;;;5.35;3.10;;;14.20;93.50;;;;;;5060605;28;20487;-80
2022/10/20 00:50:12;;;;;;;5.75;3.47;;;14.20;93.60;;;;;;5041013;28;20528;-80
2022/10/20 00:52:40;;;;;;;5.63;3.10;;;14.20;93.70;;;;;;5046164;28;20077;-80
2022/10/20 00:55:08;;;;;;;5.00;3.15;;;14.20;93.70;;;;;;5037391;28;20024;-81
2022/10/20 00:57:35;;;;;;;5.20;3.50;;;14.20;93.80;;;;;;5055849;28;20189;-80
2022/10/20 01:00:00;;;;;;;6.38;3.40;;;14.10;93.80;;;;;;5050711;28;20326;-81
2022/10/20 01:02:26;;;;;;;5.28;3.35;;;14.10;93.80;;;;;;5061945;28;20020;-80
2022/10/20 01:04:52;;;;;;;6.33;3.20;;;14.10;93.90;;;;;;5048833;28;20474;-81
2022/10/20 01:07:17;;;;;;;5.55;3.33;;;14.10;94.00;;;;;;5057377;28;20027;-80
2022/10/20 01:09:43;;;;;;;5.23;3.20;;;14.10;94.00;;;;;;5061630;28;20024;-80
2022/10/20 01:12:16;;;;;;;6.57;3.40;;;14.10;94.10;;;;;;5054719;28;20054;-80
2022/10/20 01:14:57;;;;;;;5.43;3.20;;;14.10;94.10;;;;;;5055922;28;20023;-80
2022/10/20 01:17:38;;;;;;;6.73;3.20;;;14.10;94.20;;;;;;5066881;28;20032;-80
2022/10/20 01:20:29;;;;;;;7.20;3.30;;;14.10;94.30;;;;;;5051078;28;20530;-80
2022/10/20 01:23:34;;;;;;;5.75;3.03;;;14.10;94.30;;;;;;5042951;28;20240;-80
2022/10/20 01:26:37;;;;;;;6.38;3.35;;;14.10;94.30;;;;;;5027064;28;20040;-80
2022/10/20 01:29:09;;;;;;;5.25;3.28;;;14.10;94.40;;;;;;5048132;28;20102;-80
2022/10/20 01:31:51;;;;;;;4.97;2.90;;;14.10;94.40;;;;;;5059279;28;20024;-80
2022/10/20 01:34:58;;;;;;;5.47;3.25;;;14.10;94.40;;;;;;5055876;28;20024;-80
2022/10/20 01:37:39;;;;;;;4.93;3.03;;;14.10;94.50;;;;;;5058334;28;20024;-80
2022/10/20 01:40:14;;;;;;;4.97;3.03;;;14.10;94.60;;;;;;5049532;28;20214;-81
2022/10/20 01:42:42;;;;;;;5.97;3.45;;;14.10;94.60;;;;;;5034919;28;20085;-80
2022/10/20 01:45:11;;;;;;;7.20;3.33;;;14.10;94.60;;;;;;5054412;28;20688;-80
2022/10/20 01:47:37;;;;;;;5.40;3.15;;;14.10;94.70;;;;;;5064447;28;20147;-80
2022/10/20 01:50:06;;;;;;;5.85;3.30;;;14.10;94.80;;;;;;5051883;28;20532;-80
2022/10/20 01:52:31;;;;;;;5.60;3.33;;;14.10;94.80;;;;;;5057263;28;20378;-80
2022/10/20 01:54:57;;;;;;;6.30;3.70;;;14.10;94.90;;;;;;5036803;28;20024;-80
2022/10/20 01:57:52;;;;;;;5.68;3.45;;;14.10;94.90;;;;;;5037561;28;20043;-80
2022/10/20 02:00:17;;;;;;;6.90;3.55;;;14.10;95.00;;;;;;5051858;28;20496;-81
2022/10/20 02:02:52;;;;;;;6.77;3.47;;;14.10;95.30;;;;;;5057679;28;20134;-81
2022/10/20 02:05:38;;;;;;;5.85;3.50;;;14.10;95.10;;;;;;5068614;28;20035;-81
2022/10/20 02:08:17;;;;;;;5.18;3.00;;;14.10;95.10;;;;;;5062332;28;20024;-81
2022/10/20 02:10:49;;;;;;;5.90;3.33;;;14.10;95.10;;;;;;5057132;28;20514;-80
2022/10/20 02:13:17;;;;;;;5.67;3.30;;;14.10;95.20;;;;;;5059393;28;20657;-80
2022/10/20 02:15:47;;;;;;;5.82;3.33;;;14.10;95.20;;;;;;5055116;28;20084;-80
2022/10/20 02:18:18;;;;;;;4.85;3.03;;;14.10;95.30;;;;;;5068311;28;20619;-80
2022/10/20 02:20:48;;;;;;;6.30;3.25;;;14.10;95.30;;;;;;5061697;28;20031;-80
2022/10/20 02:23:14;;;;;;;6.18;3.35;;;14.10;95.30;;;;;;5061597;28;20036;-80
2022/10/20 02:25:40;;;;;;;6.47;3.67;;;14.10;95.30;;;;;;5042144;28;20564;-81
2022/10/20 02:28:10;;;;;;;6.78;3.35;;;14.10;95.40;;;;;;5066146;28;20228;-80
2022/10/20 02:30:38;;;;;;;6.60;3.53;;;14.10;95.40;;;;;;5066429;28;20024;-80
2022/10/20 02:33:05;;;;;;;5.33;3.30;;;14.10;95.40;;;;;;5055839;28;20650;-81
2022/10/20 02:35:32;;;;;;;5.65;3.22;;;14.10;95.40;;;;;;5067786;28;20224;-80
2022/10/20 02:37:58;;;;;;;5.57;3.25;;;14.10;95.50;;;;;;5065970;28;20213;-80
2022/10/20 02:40:24;;;;;;;6.05;3.67;;;14.10;95.60;;;;;;5056943;28;20134;-80
2022/10/20 02:42:50;;;;;;;6.20;3.70;;;14.10;95.60;;;;;;5068945;28;20059;-81
2022/10/20 02:45:16;;;;;;;6.30;3.30;;;14.10;95.60;;;;;;5066535;28;20087;-81
2022/10/20 02:47:42;;;;;;;5.78;3.40;;;14.10;95.70;;;;;;5056151;28;20085;-80
2022/10/20 02:50:08;;;;;;;6.40;3.40;;;14.10;95.70;;;;;;5051684;28;20044;-81
2022/10/20 02:52:35;;;;;;;6.23;3.50;;;14.10;95.70;;;;;;5049739;28;20402;-81
2022/10/20 02:55:01;;;;;;;5.22;3.30;;;14.10;95.70;;;;;;5043103;28;20680;-80
2022/10/20 02:57:27;;;;;;;6.13;3.47;;;14.10;95.80;;;;;;5060827;28;20028;-80
2022/10/20 02:59:53;;;;;;;5.87;3.50;;;14.10;95.70;;;;;;5057366;28;20122;-81
2022/10/20 03:02:19;;;;;;;7.90;3.10;;;14.10;95.70;;;;;;5058502;28;20081;-80
2022/10/20 03:04:44;;;;;;;5.78;3.65;;;14.10;95.70;;;;;;5062534;28;20030;-80
2022/10/20 03:07:10;;;;;;;6.90;3.10;;;14.10;95.70;;;;;;5058899;28;20298;-80
2022/10/20 03:09:36;;;;;;;5.43;3.13;;;14.10;95.70;;;;;;5032804;28;20032;-81
2022/10/20 03:12:02;;;;;;;6.13;3.33;;;14.00;95.60;;;;;;5037559;28;20031;-81
2022/10/20 03:14:27;;;;;;;6.28;3.25;;;14.00;95.60;;;;;;5057587;28;20480;-81
2022/10/20 03:16:53;;;;;;;5.43;3.10;;;14.00;95.70;;;;;;5051265;28;20024;-81
2022/10/20 03:19:19;;;;;;;5.75;3.13;;;14.00;95.70;;;;;;5050145;28;20384;-81
2022/10/20 03:21:45;;;;;;;5.93;3.20;;;14.00;95.80;;;;;;5058534;28;20098;-80
2022/10/20 03:24:11;;;;;;;6.22;3.67;;;13.90;95.80;;;;;;5054102;28;20651;-80
2022/10/20 03:26:37;;;;;;;4.90;3.33;;;14.00;95.90;;;;;;5054488;28;20176;-80
2022/10/20 03:29:02;;;;;;;6.67;3.37;;;14.00;95.90;;;;;;5055938;28;20050;-80
2022/10/20 03:31:28;;;;;;;5.63;3.40;;;14.00;96.00;;;;;;5050444;28;20075;-80
2022/10/20 03:33:54;;;;;;;5.00;3.15;;;14.00;96.10;;;;;;5049704;28;20028;-80
2022/10/20 03:36:21;;;;;;;6.27;3.40;;;14.00;96.10;;;;;;5053047;28;20025;-80
2022/10/20 03:38:47;;;;;;;5.03;3.05;;;14.00;96.20;;;;;;5071304;28;20016;-81
2022/10/20 03:41:13;;;;;;;5.13;3.27;;;14.00;96.20;;;;;;5014819;28;20700;-80
2022/10/20 03:43:39;;;;;;;6.00;3.28;;;14.00;96.20;;;;;;5065362;28;20024;-80
2022/10/20 03:46:08;;;;;;;5.32;3.17;;;14.00;96.30;;;;;;5070655;28;20029;-80
2022/10/20 03:48:35;;;;;;;5.90;3.30;;;14.00;96.30;;;;;;5065713;28;20032;-80
2022/10/20 03:51:01;;;;;;;5.55;3.08;;;14.00;96.20;;;;;;5059288;28;20024;-80
2022/10/20 03:53:27;;;;;;;5.90;3.23;;;14.00;96.30;;;;;;5044208;28;20024;-81
2022/10/20 03:55:53;;;;;;;7.20;3.22;;;14.00;96.30;;;;;;5042174;28;20115;-80
2022/10/20 03:58:19;;;;;;;5.60;3.25;;;14.00;96.30;;;;;;5048591;28;20297;-80
2022/10/20 04:00:45;;;;;;;6.43;3.10;;;14.00;96.20;;;;;;5062648;28;20593;-80
2022/10/20 04:03:11;;;;;;;6.32;3.63;;;14.00;96.20;;;;;;5060190;28;20562;-80
2022/10/20 04:05:36;;;;;;;5.20;3.23;;;14.00;96.20;;;;;;5052848;28;20078;-80
2022/10/20 04:08:03;;;;;;;6.07;3.40;;;14.00;96.20;;;;;;5038853;28;20016;-80
2022/10/20 04:10:29;;;;;;;5.78;3.15;;;13.90;96.10;;;;;;5053230;28;20037;-80
2022/10/20 04:13:01;;;;;;;5.38;3.33;;;13.90;96.10;;;;;;5044146;28;20276;-80
2022/10/20 04:15:27;;;;;;;5.10;3.13;;;13.90;96.10;;;;;;5058737;28;20048;-81
2022/10/20 04:17:52;;;;;;;5.00;3.30;;;13.90;96.10;;;;;;5066790;28;20137;-81
2022/10/20 04:20:18;;;;;;;5.20;3.10;;;13.90;96.10;;;;;;5042347;28;20052;-80
2022/10/20 04:22:44;;;;;;;5.68;3.10;;;13.80;96.00;;;;;;5051546;28;20327;-81
2022/10/20 04:25:11;;;;;;;6.57;3.60;;;13.80;96.00;;;;;;5054562;28;20028;-80
2022/10/20 04:27:37;;;;;;;6.27;3.43;;;13.80;96.10;;;;;;5056208;28;20761;-81
2022/10/20 04:30:03;;;;;;;5.95;3.58;;;13.80;96.10;;;;;;5033218;28;20016;-80
2022/10/20 04:32:29;;;;;;;5.05;3.15;;;13.70;96.10;;;;;;5033824;28;20055;-80
2022/10/20 04:34:55;;;;;;;6.67;3.67;;;13.70;96.10;;;;;;5059146;28;20112;-81
2022/10/20 04:37:20;;;;;;;5.75;3.70;;;13.70;96.10;;;;;;5053640;28;20036;-80
2022/10/20 04:39:46;;;;;;;6.10;3.40;;;13.60;96.20;;;;;;5049308;28;20171;-80
2022/10/20 04:42:11;;;;;;;7.15;3.60;;;13.60;96.20;;;;;;5061233;28;20286;-81
2022/10/20 04:44:38;;;;;;;6.53;3.47;;;13.60;96.20;;;;;;5028944;28;20028;-80
2022/10/20 04:47:03;;;;;;;5.85;3.28;;;13.60;96.20;;;;;;5051114;28;20095;-81
2022/10/20 04:49:29;;;;;;;6.13;3.43;;;13.50;96.10;;;;;;5059750;28;20076;-81
2022/10/20 04:51:54;;;;;;;5.38;3.05;;;13.50;96.20;;;;;;5062948;28;20059;-81
2022/10/20 04:54:20;;;;;;;6.13;3.60;;;13.50;96.20;;;;;;5036976;28;20055;-81
2022/10/20 04:56:46;;;;;;;7.07;3.53;;;13.50;96.20;;;;;;5051730;28;20653;-80
2022/10/20 04:59:11;;;;;;;7.00;3.42;;;13.40;96.20;;;;;;5056361;28;20019;-81
2022/10/20 05:01:37;;;;;;;5.30;3.20;;;13.40;96.30;;;;;;5028784;28;20508;-81
2022/10/20 05:04:03;;;;;;;5.68;3.20;;;13.40;96.30;;;;;;5049945;28;20035;-81
2022/10/20 05:06:30;;;;;;;7.50;3.50;;;13.40;96.30;;;;;;5042304;28;21478;-80
2022/10/20 05:08:59;;;;;;;7.53;3.42;;;13.40;96.40;;;;;;5055429;28;20070;-80
2022/10/20 05:11:27;;;;;;;5.90;3.35;;;13.40;96.40;;;;;;5055244;28;20127;-81
2022/10/20 05:13:54;;;;;;;6.47;3.42;;;13.40;96.50;;;;;;5046762;28;20021;-81
2022/10/20 05:16:20;;;;;;;5.85;3.42;;;13.30;96.50;;;;;;5033952;28;20020;-81
2022/10/20 05:18:47;;;;;;;5.63;2.97;;;13.30;96.60;;;;;;5055569;28;20117;-81
2022/10/20 05:21:18;;;;;;;5.53;3.22;;;13.40;96.60;;;;;;5060488;28;20071;-82
2022/10/20 05:23:44;;;;;;;5.70;3.42;;;13.30;96.70;;;;;;5038347;28;20024;-80
2022/10/20 05:26:13;;;;;;;6.28;3.40;;;13.30;96.80;;;;;;5047315;28;20066;-81
2022/10/20 05:28:43;;;;;;;5.57;3.30;;;13.30;96.90;;;;;;5047047;28;20024;-81
2022/10/20 05:31:08;;;;;;;5.65;3.33;;;13.40;97.00;;;;;;5046579;28;20032;-80
2022/10/20 05:33:35;;;;;;;5.90;3.17;;;13.40;97.00;;;;;;5051631;28;20032;-81
2022/10/20 05:36:07;;;;;;;6.43;3.50;;;13.40;97.10;;;;;;5056114;28;20024;-81
2022/10/20 05:38:34;;;;;;;6.22;3.55;;;13.40;97.00;;;;;;5051672;28;20044;-81
2022/10/20 05:41:07;;;;;;;5.83;3.20;;;13.40;97.10;;;;;;5050792;28;21115;-81
2022/10/20 05:43:33;;;;;;;4.97;3.35;;;13.40;97.10;;;;;;5055141;28;20107;-81
2022/10/20 05:45:58;;;;;;;5.55;3.42;;;13.40;97.10;;;;;;5061133;28;20547;-81
2022/10/20 05:48:24;;;;;;;6.23;3.43;;;13.40;97.10;;;;;;5048269;28;20499;-81
2022/10/20 05:50:49;;;;;;;7.13;3.60;;;13.40;97.20;;;;;;5060064;28;20263;-80
2022/10/20 05:53:15;;;;;;;7.50;3.90;;;13.40;97.30;;;;;;5059353;28;20113;-81
2022/10/20 05:55:41;;;;;;;6.17;3.47;;;13.40;97.40;;;;;;5045720;28;20031;-81
2022/10/20 05:58:06;;;;;;;5.63;3.10;;;13.50;97.50;;;;;;5063427;28;20099;-81
2022/10/20 06:00:40;;;;;;;6.53;3.47;;;13.50;97.60;;;;;;5048283;28;20672;-81
2022/10/20 06:03:06;;;;;;;5.50;3.38;;;13.50;97.60;;;;;;5047852;28;20027;-81
2022/10/20 06:05:32;;;;;;;5.05;3.15;;;13.50;97.70;;;;;;5049096;28;20303;-81
2022/10/20 06:07:57;;;;;;;7.30;3.70;;;13.60;97.70;;;;;;5062838;28;20095;-81
2022/10/20 06:10:23;;;;;;;6.13;3.50;;;13.60;97.70;;;;;;5045326;28;20032;-81
2022/10/20 06:12:49;;;;;;;5.37;3.33;;;13.60;97.80;;;;;;5061990;28;20588;-81
2022/10/20 06:15:14;;;;;;;6.22;3.55;;;13.60;97.80;;;;;;5052988;28;20044;-81
2022/10/20 06:17:40;;;;;;;5.00;3.03;;;13.60;97.80;;;;;;5054465;28;20074;-81
2022/10/20 06:20:06;;;;;;;5.20;3.27;;;13.60;97.80;;;;;;5028415;28;20235;-81
2022/10/20 06:22:31;;;;;;;5.10;3.10;;;13.60;97.90;;;;;;5052824;28;20375;-81
2022/10/20 06:24:57;;;;;;;6.80;3.50;;;13.70;97.90;;;;;;5064475;28;20031;-81
2022/10/20 06:27:23;;;;;;;5.63;3.33;;;13.70;98.00;;;;;;5022979;28;20021;-81
2022/10/20 06:29:48;;;;;;;6.00;3.33;;;13.70;98.00;;;;;;5046214;28;20749;-81
2022/10/20 06:32:17;;;;;;;6.28;3.38;;;13.80;98.10;;;;;;5057245;28;20572;-81
2022/10/20 06:34:43;;;;;;;5.88;3.20;;;13.80;98.20;;;;;;5047644;28;20126;-81
2022/10/20 06:37:09;;;;;;;5.20;3.20;;;13.80;98.20;;;;;;5047209;28;20012;-81
2022/10/20 06:39:35;;;;;;;5.53;3.60;;;13.90;98.30;;;;;;5060802;28;20239;-81
2022/10/20 06:42:02;;;;;;;7.93;3.60;;;13.90;98.40;;;;;;5041616;28;20537;-81
2022/10/20 06:44:28;;;;;;;5.97;3.67;;;13.90;98.40;;;;;;5036618;28;20040;-81
2022/10/20 06:46:53;;;;;;;5.68;3.58;;;13.90;98.40;;;;;;5069467;28;20077;-81
2022/10/20 06:49:19;;;;;;;5.73;3.43;;;14.00;98.50;;;;;;5043436;28;20144;-80
2022/10/20 06:51:45;;;;;;;5.75;3.70;;;14.00;98.60;;;;;;5049579;28;20032;-81
2022/10/20 06:54:11;;;;;;;6.40;3.73;;;14.00;98.50;;;;;;5060003;28;20043;-81
2022/10/20 06:56:38;;;;;;;6.00;3.25;;;14.10;98.60;;;;;;5036012;28;20192;-81
2022/10/20 06:59:03;;;;;;;5.63;3.78;;;14.10;98.70;;;;;;5048813;28;20028;-81
2022/10/20 07:01:33;;;;;;;5.60;3.27;;;14.10;98.70;;;;;;5044569;28;20133;-81
2022/10/20 07:04:02;;;;;;;5.95;3.45;;;14.20;98.70;;;;;;5066099;28;20035;-81
2022/10/20 07:06:33;;;;;;;5.45;3.47;;;14.20;98.80;;;;;;5039584;28;20567;-81
2022/10/20 07:08:59;;;;;;;6.22;3.50;;;14.20;98.90;;;;;;5064302;28;20472;-81
2022/10/20 07:11:29;;;;;;;5.80;3.80;;;14.20;98.90;;;;;;5056082;28;20060;-81
2022/10/20 07:13:57;;;;;;;5.32;3.50;;;14.30;98.90;;;;;;5043995;28;20118;-81
2022/10/20 07:16:24;;;;;;;5.80;3.40;;;14.30;99.00;;;;;;5062868;28;20068;-81
2022/10/20 07:18:50;;;;;;;5.65;3.58;;;14.30;99.10;;;;;;5072543;28;20077;-81
2022/10/20 07:21:18;;;;;;;5.72;3.38;;;14.30;99.10;;;;;;5057508;28;20031;-81
2022/10/20 07:23:45;;;;;;;5.17;3.20;;;14.40;99.20;;;;;;5045658;28;20371;-81
2022/10/20 07:26:15;;;;;;;5.95;3.58;;;14.40;99.20;;;;;;5059933;28;20316;-81
2022/10/20 07:28:43;;;;;;;6.68;3.50;;;14.50;99.30;;;;;;5054442;28;20706;-81
2022/10/20 07:31:11;;;;;;;6.47;3.50;;;14.50;99.30;;;;;;5052492;28;20024;-81
2022/10/20 07:33:37;;;;;;;5.88;3.80;;;14.50;99.40;;;;;;5048209;28;20029;-81
2022/10/20 07:36:24;;;;;;;5.70;3.27;;;14.60;99.40;;;;;;5048275;28;20054;-81
2022/10/20 07:38:52;;;;;;;5.60;3.33;;;14.60;99.40;;;;;;5059858;28;20111;-81
2022/10/20 07:41:17;;;;;;;6.40;3.53;;;14.60;99.50;;;;;;5076383;28;20020;-81
2022/10/20 07:43:43;;;;;;;4.93;3.30;;;14.70;99.60;;;;;;5039262;28;20043;-81
2022/10/20 07:46:10;;;;;;;6.28;3.65;;;14.70;99.70;;;;;;5062860;28;20039;-81
2022/10/20 07:48:36;;;;;;;6.25;3.70;;;14.80;99.70;;;;;;5066218;28;20013;-81
2022/10/20 07:51:20;;;;;;;5.67;3.23;;;14.80;99.80;;;;;;5067305;28;20055;-81
2022/10/20 07:54:05;;;;;;;9.10;3.78;;;14.90;99.80;;;;;;5061823;28;20028;-81
2022/10/20 07:56:34;;;;;;;6.60;3.70;;;14.90;99.90;;;;;;5043786;28;20020;-80
2022/10/20 07:59:00;;;;;;;5.88;3.63;;;15.00;99.90;;;;;;5033197;28;20051;-81
2022/10/20 08:01:26;;;;;;;5.90;3.57;;;15.00;99.90;;;;;;5067103;28;20075;-81
2022/10/20 08:03:52;;;;;;;7.43;4.10;;;15.10;99.90;;;;;;5057306;28;20073;-81
2022/10/20 08:06:19;;;;;;;7.85;4.00;;;15.20;99.90;;;;;;5065123;28;20547;-81
2022/10/20 08:08:44;;;;;;;5.95;3.85;;;15.20;99.90;;;;;;5055440;28;20028;-81
2022/10/20 08:11:10;;;;;;;6.70;4.00;;;15.30;99.90;;;;;;5066836;28;20468;-81
2022/10/20 08:13:38;;;;;;;6.53;3.78;;;15.30;99.90;;;;;;5054158;28;20504;-81
2022/10/20 08:16:04;;;;;;;7.55;4.20;;;15.40;99.90;;;;;;5061746;28;20016;-80
2022/10/20 08:18:29;;;;;;;6.17;4.03;;;15.40;99.90;;;;;;5058755;28;20024;-81
2022/10/20 08:21:15;;;;;;;8.15;4.25;;;15.50;99.90;;;;;;5052794;28;20462;-81
2022/10/20 08:23:43;;;;;;;6.47;3.75;;;15.60;99.90;;;;;;5034900;28;20171;-80
2022/10/20 08:26:09;;;;;;;6.20;4.03;;;15.80;99.90;;;;;;5053802;28;20437;-81
2022/10/20 08:28:35;;;;;;;7.78;3.92;;;15.90;99.90;;;;;;5043453;28;20051;-81
2022/10/20 08:31:03;;;;;;;7.23;3.90;;;16.00;99.90;;;;;;5053590;28;20332;-80
2022/10/20 08:33:29;;;;;;;5.57;3.72;;;16.10;99.90;;;;;;5061379;28;20563;-80
2022/10/20 08:35:55;;;;;;;7.78;4.15;;;16.20;99.90;;;;;;5060823;28;20044;-80
2022/10/20 08:38:20;;;;;;;5.30;3.50;;;16.30;99.90;;;;;;5036579;28;20032;-81
2022/10/20 08:40:46;;;;;;;5.18;3.47;;;16.40;99.90;;;;;;5044958;28;20024;-81
2022/10/20 08:43:16;;;;;;;5.97;3.80;;;16.40;99.90;;;;;;5062781;28;20032;-81
2022/10/20 08:45:42;;;;;;;6.32;3.38;;;16.50;99.90;;;;;;5050190;28;20032;-80
2022/10/20 08:48:15;;;;;;;6.30;3.67;;;16.50;99.90;;;;;;5067855;28;20283;-81
2022/10/20 08:50:46;;;;;;;5.55;3.63;;;16.50;99.90;;;;;;5057731;28;20760;-81
2022/10/20 08:53:12;;;;;;;5.55;3.30;;;16.50;99.90;;;;;;5047935;28;20036;-81
2022/10/20 08:55:37;;;;;;;6.78;3.50;;;16.50;99.90;;;;;;5025952;28;20495;-81
2022/10/20 08:58:12;;;;;;;7.33;3.27;;;16.50;99.90;;;;;;5047654;28;20495;-81
2022/10/20 09:00:39;;;;;;;5.88;3.30;;;16.40;99.70;;;;;;5048165;28;20370;-81
2022/10/20 09:03:36;;;;;;;5.05;3.47;;;16.40;99.80;;;;;;5063481;28;20016;-81
2022/10/20 09:06:14;;;;;;;4.20;2.65;;;16.40;99.70;;;;;;5065315;28;20404;-81
2022/10/20 09:08:41;;;;;;;5.30;3.00;;;16.30;99.80;;;;;;5040303;28;20043;-80
2022/10/20 09:11:12;;;;;;;6.22;2.85;;;16.30;99.90;;;;;;5041650;28;20519;-80
2022/10/20 09:13:38;;;;;;;6.32;2.97;;;16.30;99.90;;;;;;5071945;28;20412;-79
2022/10/20 09:16:06;;;;;;;4.93;3.07;;;16.30;99.90;;;;;;5032149;28;20020;-80
2022/10/20 09:18:33;;;;;;;5.68;3.40;;;16.30;99.90;;;;;;5065357;28;20031;-80
2022/10/20 09:21:20;;;;;;;6.03;3.42;;;16.20;99.90;;;;;;5067922;28;20028;-80
2022/10/20 09:23:51;;;;;;;6.05;3.75;;;16.20;99.90;;;;;;5062560;28;20226;-80
2022/10/20 09:26:22;;;;;;;7.68;3.90;;;16.20;99.90;;;;;;5039529;28;20027;-80
2022/10/20 09:28:51;;;;;;;6.27;3.77;;;16.20;99.90;;;;;;5045579;28;20225;-80
2022/10/20 09:31:44;;;;;;;5.20;3.42;;;16.20;99.90;;;;;;5041971;28;20032;-79
2022/10/20 09:34:31;;;;;;;6.18;3.65;;;16.10;99.90;;;;;;5056676;28;20409;-80
2022/10/20 09:37:13;;;;;;;6.68;3.60;;;16.10;99.90;;;;;;5060815;28;20764;-80
2022/10/20 09:39:53;;;;;;;7.03;3.95;;;16.10;99.90;;;;;;5059090;28;20169;-80
2022/10/20 09:42:36;;;;;;;5.50;3.43;;;16.10;99.90;;;;;;5043299;28;20538;-81
2022/10/20 09:45:27;;;;;;;6.38;3.63;;;16.10;99.90;;;;;;5070376;28;20032;-79
2022/10/20 09:48:23;;;;;;;6.88;3.50;;;16.10;99.90;;;;;;5042598;28;20403;-79
2022/10/20 09:50:53;;;;;;;5.40;3.30;;;16.10;99.90;;;;;;5046158;28;20071;-80
2022/10/20 09:53:24;;;;;;;5.97;3.33;;;16.10;99.90;;;;;;5052950;28;20439;-80
2022/10/20 09:55:50;;;;;;;8.63;3.73;;;16.10;99.90;;;;;;5059379;28;20111;-80
2022/10/20 09:58:27;;;;;;;5.72;3.55;;;16.20;99.90;;;;;;5045659;28;20044;-79
2022/10/20 10:01:05;;;;;;;6.72;3.60;;;16.20;99.90;;;;;;5068047;28;20110;-79
2022/10/20 10:03:43;;;;;;;8.27;3.30;;;16.20;99.90;;;;;;5049879;28;20028;-79
2022/10/20 10:06:38;;;;;;;5.47;3.38;;;16.20;99.90;;;;;;5047623;28;20020;-79
2022/10/20 10:09:34;;;;;;;6.00;3.13;;;16.30;99.90;;;;;;5058581;28;20079;-79
2022/10/20 10:12:11;;;;;;;5.70;3.00;;;16.30;99.90;;;;;;5070333;28;20114;-80
2022/10/20 10:14:47;;;;;;;5.82;3.42;;;16.30;99.90;;;;;;5052129;28;20437;-81
2022/10/20 10:17:34;;;;;;;5.45;3.47;;;16.40;99.90;;;;;;5064332;28;20024;-81
2022/10/20 10:20:04;;;;;;;5.75;3.45;;;16.40;99.90;;;;;;5050508;28;20127;-80
2022/10/20 10:22:30;;;;;;;6.20;3.20;;;16.50;99.90;;;;;;5048865;28;20079;-80
2022/10/20 10:24:56;;;;;;;5.78;3.33;;;16.50;99.90;;;;;;5035708;28;20040;-81
2022/10/20 10:27:32;;;;;;;6.35;3.85;;;16.60;99.90;;;;;;5064208;28;20074;-80
2022/10/20 10:30:26;;;;;;;6.32;3.70;;;16.70;99.90;;;;;;5036018;28;20146;-81
2022/10/20 10:32:52;;;;;;;6.47;3.72;;;16.80;99.90;;;;;;5059925;28;20489;-80
2022/10/20 10:35:17;;;;;;;6.77;3.83;;;16.90;99.90;;;;;;5052514;28;20184;-80
2022/10/20 10:37:44;;;;;;;7.73;3.77;;;17.00;99.90;;;;;;5072534;28;20060;-81
2022/10/20 10:40:17;;;;;;;5.75;4.07;;;17.10;99.90;;;;;;5061570;28;20301;-82
2022/10/20 10:43:23;;;;;;;6.25;4.03;;;17.30;99.90;;;;;;5057506;28;20099;-79
2022/10/20 10:45:55;;;;;;;6.28;3.65;;;17.50;99.90;;;;;;5046460;28;20504;-81
2022/10/20 10:49:04;;;;;;;6.47;3.78;;;17.70;99.90;;;;;;5053993;28;20024;-80
2022/10/20 10:51:59;;;;;;;7.53;3.80;;;17.90;99.90;;;;;;5004678;28;20131;-79
2022/10/20 10:54:44;;;;;;;6.50;3.47;;;18.00;99.90;;;;;;5060390;28;20590;-79
2022/10/20 10:57:28;;;;;;;5.43;3.40;;;18.10;99.90;;;;;;5054057;28;20059;-80
2022/10/20 10:59:57;;;;;;;7.20;3.72;;;18.20;99.90;;;;;;5044861;28;20098;-80
2022/10/20 11:03:04;;;;;;;5.70;3.67;;;18.20;99.90;;;;;;5057658;28;20384;-79
2022/10/20 11:06:03;;;;;;;6.13;3.27;;;18.30;99.90;;;;;;5044447;28;20553;-79
2022/10/20 11:08:48;;;;;;;7.07;3.70;;;18.30;99.90;;;;;;5059216;28;20389;-79
2022/10/20 11:11:32;;;;;;;6.57;3.45;;;18.40;99.90;;;;;;5034845;28;20544;-81
2022/10/20 11:14:03;;;;;;;6.88;3.75;;;18.30;99.90;;;;;;5070026;28;20726;-81
2022/10/20 11:16:39;;;;;;;6.30;3.65;;;18.40;99.90;;;;;;5045096;28;20028;-79
2022/10/20 11:19:21;;;;;;;5.27;3.17;;;18.40;99.90;;;;;;5055616;28;20246;-80
2022/10/20 11:21:52;;;;;;;5.80;3.30;;;18.50;99.90;;;;;;5042626;28;20150;-80
2022/10/20 11:24:58;;;;;;;6.47;3.42;;;18.60;99.90;;;;;;5063152;28;20059;-79
2022/10/20 11:27:28;;;;;;;5.47;3.30;;;18.70;99.90;;;;;;5033702;28;20036;-80
2022/10/20 11:30:14;;;;;;;5.75;3.13;;;18.70;99.90;;;;;;5031566;28;20881;-80
2022/10/20 11:32:51;;;;;;;5.63;3.30;;;18.80;99.90;;;;;;5057384;28;20518;-80
2022/10/20 11:35:36;;;;;;;5.65;3.15;;;18.90;99.90;;;;;;5064619;28;20741;-81
2022/10/20 11:38:22;;;;;;;4.47;2.95;;;19.00;99.90;;;;;;5046373;28;20269;-80
2022/10/20 11:41:02;;;;;;;6.57;3.38;;;19.20;99.90;;;;;;5045317;28;20503;-80
2022/10/20 11:43:51;;;;;;;4.95;3.00;;;19.30;99.90;;;;;;5044124;28;20496;-79
2022/10/20 11:46:23;;;;;;;5.50;2.97;;;19.40;99.90;;;;;;5038351;28;20091;-82
2022/10/20 11:48:54;;;;;;;6.55;2.97;;;19.60;99.90;;;;;;5056418;28;20228;-81
2022/10/20 11:51:38;;;;;;;4.95;3.28;;;19.90;99.90;;;;;;5044022;28;20059;-80
2022/10/20 11:54:25;;;;;;;5.10;3.13;;;20.20;99.90;;;;;;5028670;28;20450;-81
2022/10/20 11:57:10;;;;;;;5.07;2.95;;;20.60;99.90;;;;;;5047178;28;20143;-80
2022/10/20 12:00:04;;;;;;;4.73;2.90;;;20.90;99.90;;;;;;5040237;28;20488;-81
2022/10/20 12:03:13;;;;;;;3.97;2.70;;;21.30;99.90;;;;;;5052388;28;20149;-81
2022/10/20 12:06:04;;;;;;;4.18;2.70;;;21.60;99.90;;;;;;5070140;28;20550;-81
2022/10/20 12:08:48;;;;;;;3.90;2.53;;;21.90;99.90;;;;;;5062613;28;20285;-81
2022/10/20 12:11:20;;;;;;;5.45;2.53;;;22.20;99.90;;;;;;5059194;28;20081;-81
2022/10/20 12:14:14;;;;;;;4.77;2.17;;;22.40;99.90;;;;;;5056989;28;20025;-81
2022/10/20 12:16:54;;;;;;;4.30;2.75;;;22.50;99.90;;;;;;5060669;28;20078;-81
2022/10/20 12:19:29;;;;;;;4.55;2.78;;;22.70;99.90;;;;;;5051165;28;20043;-82
2022/10/20 12:22:27;;;;;;;5.00;2.30;;;22.90;99.90;;;;;;5042556;28;20095;-82
2022/10/20 12:24:52;;;;;;;4.18;2.35;;;23.00;99.90;;;;;;5042165;28;20223;-82
2022/10/20 12:27:24;;;;;;;4.07;2.40;;;23.00;99.90;;;;;;5061679;28;20046;-82
2022/10/20 12:29:52;;;;;;;5.18;2.30;;;22.90;99.90;;;;;;5064133;28;20222;-81
2022/10/20 12:32:23;;;;;;;3.30;2.30;;;22.90;99.90;;;;;;5055870;28;20090;-82
2022/10/20 12:35:09;;;;;;;3.57;2.20;;;22.90;99.90;;;;;;5041657;28;20595;-82
2022/10/20 12:37:37;;;;;;;4.32;2.53;;;22.90;99.90;;;;;;5072598;28;20040;-81
2022/10/20 12:40:06;;;;;;;3.90;2.42;;;22.90;99.90;;;;;;5047135;28;20818;-83
2022/10/20 12:42:33;;;;;;;4.35;2.33;;;22.80;99.90;;;;;;5044056;28;20129;-81
2022/10/20 12:45:04;;;;;;;5.32;2.42;;;22.80;99.90;;;;;;5038963;28;20024;-83
2022/10/20 12:47:33;;;;;;;4.40;2.27;;;22.80;99.90;;;;;;5044222;28;20036;-82
2022/10/20 12:50:22;;;;;;;3.83;2.20;;;22.80;99.90;;;;;;5030949;28;20123;-83
2022/10/20 12:52:48;;;;;;;3.90;2.03;;;22.80;99.90;;;;;;5059751;28;20202;-83
2022/10/20 12:55:14;;;;;;;4.60;2.05;;;22.90;99.90;;;;;;5048993;28;20412;-82
2022/10/20 12:57:41;;;;;;;6.20;2.30;;;22.90;99.90;;;;;;5049846;28;20032;-82
2022/10/20 13:00:26;;;;;;;4.20;2.20;;;22.90;99.90;;;;;;5059998;28;20312;-82
2022/10/20 13:02:54;;;;;;;5.28;2.58;;;22.90;99.90;;;;;;5035453;28;20037;-83
2022/10/20 13:05:40;;;;;;;3.00;2.00;;;23.10;99.90;;;;;;5047735;28;20451;-82
2022/10/20 13:08:34;;;;;;;3.90;2.30;;;23.40;99.90;;;;;;5081658;28;20019;-82
2022/10/20 13:11:32;;;;;;;4.45;2.05;;;23.70;99.90;;;;;;5028074;28;20147;-83